Time;durP1;ratioP1;P1;durP2;ratioP2;P2;SDS_P1;SDS_P2;PMS_P1;PMS_P2;Temp;Humidity;BMP_temperature;BMP_pressure;BME280_temperature;BME280_humidity;BME280_pressure;Samples;Min_cycle;Max_cycle;Signal;HPM_P1;HPM_P2
2023/02/14 00:00:40;;;;;;;8.82;7.45;;;0.70;99.90;;;;;;486495;244;27966;-75
2023/02/14 00:02:41;;;;;;;9.98;7.75;;;0.60;99.90;;;;;;486486;244;27978;-76
2023/02/14 00:04:44;;;;;;;10.35;7.68;;;0.60;99.90;;;;;;486526;244;27835;-76
2023/02/14 00:06:44;;;;;;;11.00;7.95;;;0.60;99.90;;;;;;486429;244;27395;-76
2023/02/14 00:08:45;;;;;;;15.82;9.60;;;0.60;99.90;;;;;;486438;244;27445;-76
2023/02/14 00:10:46;;;;;;;12.00;9.48;;;0.60;99.90;;;;;;486504;244;27474;-76
2023/02/14 00:12:48;;;;;;;7.68;6.87;;;0.50;99.90;;;;;;486485;244;27504;-77
2023/02/14 00:17:09;;;;;;;11.12;7.57;;;0.50;99.90;;;;;;486404;244;27976;-76
2023/02/14 00:19:10;;;;;;;10.38;7.85;;;0.50;99.90;;;;;;486463;244;27442;-76
2023/02/14 00:21:11;;;;;;;12.45;8.15;;;0.50;99.90;;;;;;486529;244;27431;-76
2023/02/14 00:23:12;;;;;;;12.30;7.82;;;0.50;99.90;;;;;;486540;244;27424;-76
2023/02/14 00:25:14;;;;;;;11.80;6.62;;;0.50;99.90;;;;;;486498;244;27502;-76
2023/02/14 00:27:15;;;;;;;10.23;7.37;;;0.50;99.90;;;;;;486469;244;27473;-76
2023/02/14 00:29:16;;;;;;;10.73;7.82;;;0.50;99.90;;;;;;486493;244;27454;-77
2023/02/14 00:31:17;;;;;;;11.93;8.60;;;0.50;99.90;;;;;;486511;244;27462;-76
2023/02/14 00:33:19;;;;;;;12.55;8.75;;;0.60;99.90;;;;;;486463;244;27871;-76
2023/02/14 00:35:20;;;;;;;13.15;9.13;;;0.60;99.90;;;;;;486482;244;28009;-75
2023/02/14 00:37:21;;;;;;;15.02;9.45;;;0.50;99.90;;;;;;486516;244;27849;-76
2023/02/14 00:39:41;;;;;;;12.13;7.72;;;0.50;99.90;;;;;;486589;244;27494;-76
2023/02/14 00:41:42;;;;;;;15.10;9.15;;;0.40;99.90;;;;;;486493;244;27985;-77
2023/02/14 00:43:43;;;;;;;13.27;8.13;;;0.40;99.90;;;;;;486399;244;27941;-76
2023/02/14 00:45:44;;;;;;;12.02;8.23;;;0.40;99.90;;;;;;486351;244;28157;-76
2023/02/14 00:47:46;;;;;;;13.02;9.15;;;0.30;99.90;;;;;;486348;244;27657;-76
2023/02/14 00:49:47;;;;;;;14.05;8.82;;;0.30;99.90;;;;;;486418;244;27559;-76
2023/02/14 00:51:48;;;;;;;14.00;9.65;;;0.30;99.90;;;;;;486517;244;27533;-76
2023/02/14 00:53:49;;;;;;;13.27;8.80;;;0.30;99.90;;;;;;486448;244;27416;-76
2023/02/14 00:55:51;;;;;;;11.40;8.15;;;0.30;99.90;;;;;;486467;244;27450;-76
2023/02/14 00:57:52;;;;;;;12.93;8.63;;;0.30;99.90;;;;;;486553;244;27469;-78
2023/02/14 00:59:53;;;;;;;10.77;8.10;;;0.20;99.90;;;;;;486556;244;27422;-76
2023/02/14 01:01:54;;;;;;;14.63;9.38;;;0.20;99.90;;;;;;486543;244;27955;-74
2023/02/14 01:03:57;;;;;;;13.50;8.85;;;0.20;99.90;;;;;;486498;244;28013;-76
2023/02/14 01:05:57;;;;;;;12.05;8.77;;;0.20;99.90;;;;;;486418;244;27575;-76
2023/02/14 01:07:58;;;;;;;10.68;7.87;;;0.20;99.90;;;;;;486533;244;27434;-76
2023/02/14 01:09:59;;;;;;;14.85;9.40;;;0.10;99.90;;;;;;486574;244;27386;-76
2023/02/14 01:12:01;;;;;;;14.73;9.95;;;0.20;99.90;;;;;;486517;244;27556;-75
2023/02/14 01:14:02;;;;;;;12.73;9.15;;;0.20;99.90;;;;;;486511;244;27466;-76
2023/02/14 01:16:03;;;;;;;13.27;9.07;;;0.10;99.90;;;;;;485363;244;27461;-76
2023/02/14 01:18:04;;;;;;;13.57;9.32;;;0.10;99.90;;;;;;486519;244;27466;-76
2023/02/14 01:20:06;;;;;;;15.57;9.50;;;0.20;99.90;;;;;;486557;244;27454;-76
2023/02/14 01:22:07;;;;;;;12.60;9.27;;;0.20;99.90;;;;;;486542;244;27949;-76
2023/02/14 01:24:08;;;;;;;16.65;9.63;;;0.20;99.90;;;;;;486535;244;27952;-76
2023/02/14 01:26:09;;;;;;;11.82;8.35;;;0.20;99.90;;;;;;486519;244;27513;-76
2023/02/14 01:28:11;;;;;;;14.95;10.40;;;0.10;99.90;;;;;;486515;244;27457;-75
2023/02/14 01:30:12;;;;;;;12.25;8.45;;;0.20;99.90;;;;;;486562;242;27508;-76
2023/02/14 01:32:13;;;;;;;15.52;9.05;;;0.20;99.90;;;;;;486577;244;27429;-76
2023/02/14 01:34:14;;;;;;;16.08;9.18;;;0.10;99.90;;;;;;486469;242;27518;-75
2023/02/14 01:36:22;;;;;;;14.87;9.15;;;0.10;99.90;;;;;;486565;244;27441;-76
2023/02/14 01:38:23;;;;;;;14.57;8.98;;;0.10;99.90;;;;;;486542;244;27895;-76
2023/02/14 01:40:24;;;;;;;15.95;9.95;;;0.10;99.90;;;;;;486531;244;28020;-76
2023/02/14 01:42:25;;;;;;;12.65;8.77;;;0.10;99.90;;;;;;486581;244;27929;-77
2023/02/14 01:44:27;;;;;;;18.12;11.45;;;0.00;99.90;;;;;;486568;244;27407;-76
2023/02/14 01:46:28;;;;;;;15.45;10.10;;;0.00;99.90;;;;;;486572;244;27438;-77
2023/02/14 01:48:29;;;;;;;13.95;8.63;;;-0.10;99.90;;;;;;486504;244;27470;-76
2023/02/14 01:50:30;;;;;;;17.52;9.60;;;-0.10;99.90;;;;;;486534;244;27530;-76
2023/02/14 01:52:32;;;;;;;14.82;9.38;;;-0.10;99.90;;;;;;486555;244;27442;-76
2023/02/14 01:54:33;;;;;;;15.50;10.48;;;-0.10;99.90;;;;;;486549;244;27915;-76
2023/02/14 01:56:34;;;;;;;14.90;8.82;;;-0.10;99.90;;;;;;486505;244;27921;-76
2023/02/14 01:58:36;;;;;;;18.70;10.25;;;0.00;99.90;;;;;;486499;244;27527;-75
2023/02/14 02:03:15;;;;;;;18.35;10.48;;;0.00;99.90;;;;;;486548;244;27969;-76
2023/02/14 02:05:22;;;;;;;12.75;9.45;;;0.00;99.90;;;;;;486547;244;27558;-76
2023/02/14 02:07:17;;;;;;;12.70;9.43;;;0.00;99.90;;;;;;486097;244;27459;-76
2023/02/14 02:09:19;;;;;;;15.40;9.88;;;0.00;99.90;;;;;;486475;244;27481;-76
2023/02/14 02:11:20;;;;;;;12.40;8.82;;;0.00;99.90;;;;;;486473;244;27450;-76
2023/02/14 02:13:21;;;;;;;14.27;9.75;;;0.00;99.90;;;;;;486488;244;27489;-75
2023/02/14 02:15:22;;;;;;;12.88;9.40;;;-0.10;99.90;;;;;;486525;244;27788;-76
2023/02/14 02:17:24;;;;;;;13.10;9.40;;;-0.10;99.90;;;;;;486537;244;27401;-77
2023/02/14 02:19:25;;;;;;;12.73;8.95;;;-0.10;99.90;;;;;;486504;244;28018;-76
2023/02/14 02:21:26;;;;;;;12.93;8.80;;;-0.10;99.90;;;;;;486500;244;27966;-76
2023/02/14 02:23:27;;;;;;;10.77;8.35;;;-0.10;99.90;;;;;;486288;244;27429;-76
2023/02/14 02:25:29;;;;;;;14.52;8.63;;;-0.10;99.90;;;;;;486551;244;27459;-76
2023/02/14 02:27:30;;;;;;;12.45;8.68;;;-0.20;99.90;;;;;;486532;244;27500;-75
2023/02/14 02:29:31;;;;;;;13.20;9.35;;;-0.20;99.90;;;;;;486520;244;27565;-76
2023/02/14 02:31:32;;;;;;;17.85;10.30;;;-0.20;99.90;;;;;;486497;244;27514;-76
2023/02/14 02:33:34;;;;;;;13.45;9.15;;;-0.30;99.90;;;;;;486532;244;28012;-76
2023/02/14 02:35:35;;;;;;;13.15;7.55;;;-0.30;99.90;;;;;;486373;244;28001;-76
2023/02/14 02:37:36;;;;;;;13.45;8.93;;;-0.30;99.90;;;;;;486565;244;27506;-75
2023/02/14 02:39:37;;;;;;;14.32;9.50;;;-0.30;99.90;;;;;;486517;244;27458;-76
2023/02/14 02:41:39;;;;;;;11.93;9.23;;;-0.30;99.90;;;;;;486523;244;27414;-76
2023/02/14 02:43:40;;;;;;;14.68;8.75;;;-0.30;99.90;;;;;;486495;244;27537;-76
2023/02/14 02:46:46;;;;;;;18.80;10.70;;;-0.30;99.90;;;;;;486527;244;27846;-77
2023/02/14 02:47:42;;;;;;;15.65;9.60;;;-0.40;99.90;;;;;;486349;244;27423;-76
2023/02/14 02:54:23;;;;;;;14.23;9.40;;;-0.40;99.90;;;;;;486568;244;27414;-76
2023/02/14 02:58:43;;;;;;;12.37;9.07;;;-0.40;99.90;;;;;;486537;242;27861;-76
2023/02/14 03:00:45;;;;;;;14.60;9.98;;;-0.40;99.90;;;;;;486569;244;27428;-76
2023/02/14 03:05:06;;;;;;;13.30;9.55;;;-0.40;99.90;;;;;;486507;243;27867;-76
2023/02/14 03:09:26;;;;;;;12.75;8.65;;;-0.40;99.90;;;;;;486486;244;27957;-74
2023/02/14 03:11:28;;;;;;;15.10;10.40;;;-0.40;99.90;;;;;;486483;244;27886;-76
2023/02/14 03:13:29;;;;;;;15.05;9.98;;;-0.40;99.90;;;;;;486495;244;27494;-76
2023/02/14 03:15:30;;;;;;;15.20;10.23;;;-0.40;99.90;;;;;;486522;243;27474;-76
2023/02/14 03:17:31;;;;;;;19.10;11.20;;;-0.40;99.90;;;;;;486569;244;27398;-76
2023/02/14 03:21:53;;;;;;;15.55;10.50;;;-0.40;99.90;;;;;;486473;244;27513;-76
2023/02/14 03:23:54;;;;;;;13.80;9.65;;;-0.40;99.90;;;;;;486507;244;27410;-76
2023/02/14 03:25:55;;;;;;;14.13;8.98;;;-0.40;99.90;;;;;;486430;244;27477;-76
2023/02/14 03:27:56;;;;;;;14.82;9.93;;;-0.40;99.90;;;;;;486433;244;27949;-76
2023/02/14 03:29:57;;;;;;;14.68;9.43;;;-0.40;99.90;;;;;;486389;244;28158;-75
2023/02/14 03:31:59;;;;;;;13.93;9.20;;;-0.40;99.90;;;;;;486512;244;28613;-76
2023/02/14 03:34:00;;;;;;;12.68;9.13;;;-0.40;99.90;;;;;;486552;244;27403;-76
2023/02/14 03:36:01;;;;;;;15.75;9.80;;;-0.50;99.90;;;;;;486443;244;27553;-76
2023/02/14 03:38:02;;;;;;;15.90;9.70;;;-0.50;99.90;;;;;;486467;244;27426;-76
2023/02/14 03:40:04;;;;;;;13.55;9.48;;;-0.50;99.90;;;;;;486490;244;27450;-76
2023/02/14 03:42:05;;;;;;;14.57;9.63;;;-0.50;99.90;;;;;;486527;244;27536;-76
2023/02/14 03:44:06;;;;;;;16.87;10.00;;;-0.50;99.90;;;;;;486462;244;27923;-76
2023/02/14 03:46:07;;;;;;;14.82;9.85;;;-0.50;99.90;;;;;;486524;244;27937;-77
2023/02/14 03:48:09;;;;;;;17.37;10.30;;;-0.50;99.90;;;;;;486514;244;27474;-76
2023/02/14 03:50:10;;;;;;;15.27;10.43;;;-0.50;99.90;;;;;;486489;244;27545;-75
2023/02/14 03:52:11;;;;;;;16.02;10.30;;;-0.50;99.90;;;;;;486503;244;27407;-76
2023/02/14 03:54:12;;;;;;;15.55;9.65;;;-0.50;99.90;;;;;;486554;244;27406;-76
2023/02/14 03:56:14;;;;;;;11.15;8.48;;;-0.50;99.90;;;;;;486510;244;27442;-76
2023/02/14 03:58:15;;;;;;;14.13;9.82;;;-0.60;99.90;;;;;;486505;244;28006;-76
2023/02/14 04:00:17;;;;;;;16.60;9.98;;;-0.50;99.90;;;;;;486459;244;27942;-76
2023/02/14 04:02:17;;;;;;;13.05;9.20;;;-0.60;99.90;;;;;;486422;244;27438;-75
2023/02/14 04:04:19;;;;;;;17.92;10.18;;;-0.60;99.90;;;;;;486521;244;27486;-76
2023/02/14 04:06:20;;;;;;;13.62;9.63;;;-0.60;99.90;;;;;;486530;244;27442;-77
2023/02/14 04:08:21;;;;;;;13.18;8.52;;;-0.60;99.90;;;;;;486493;244;27506;-75
2023/02/14 04:10:22;;;;;;;14.50;9.45;;;-0.60;99.90;;;;;;486522;244;27517;-76
2023/02/14 04:12:24;;;;;;;12.60;9.23;;;-0.60;99.90;;;;;;486363;244;28059;-76
2023/02/14 04:14:28;;;;;;;15.02;10.38;;;-0.60;99.90;;;;;;486503;244;27949;-76
2023/02/14 04:16:26;;;;;;;13.13;8.70;;;-0.70;99.90;;;;;;486457;244;27517;-76
2023/02/14 04:20:47;;;;;;;14.65;9.98;;;-0.70;99.90;;;;;;486548;243;27449;-76
2023/02/14 04:22:50;;;;;;;16.95;10.25;;;-0.70;99.90;;;;;;486526;244;27450;-77
2023/02/14 04:24:50;;;;;;;15.07;9.27;;;-0.70;99.90;;;;;;486515;244;28004;-76
2023/02/14 04:27:08;;;;;;;18.55;10.73;;;-0.70;99.90;;;;;;486502;244;27952;-76
2023/02/14 04:28:55;;;;;;;15.35;9.57;;;-0.70;99.90;;;;;;486429;244;27510;-76
2023/02/14 04:30:56;;;;;;;17.37;10.57;;;-0.70;99.90;;;;;;486567;244;27510;-76
2023/02/14 04:32:58;;;;;;;14.57;9.65;;;-0.70;99.90;;;;;;486515;243;27458;-76
2023/02/14 04:34:59;;;;;;;19.37;11.82;;;-0.70;99.90;;;;;;486425;240;27520;-76
2023/02/14 04:37:00;;;;;;;16.45;10.65;;;-0.70;99.90;;;;;;486537;244;28719;-75
2023/02/14 04:39:02;;;;;;;17.30;11.18;;;-0.80;99.90;;;;;;486548;244;27850;-76
2023/02/14 04:41:03;;;;;;;17.75;11.93;;;-0.80;99.90;;;;;;486532;244;27458;-76
2023/02/14 04:43:06;;;;;;;22.83;10.63;;;-0.90;99.90;;;;;;486521;244;27410;-75
2023/02/14 04:45:05;;;;;;;18.52;10.07;;;-0.90;99.90;;;;;;486496;244;27537;-76
2023/02/14 04:47:07;;;;;;;15.93;9.35;;;-0.90;99.90;;;;;;486560;244;27558;-75
2023/02/14 04:49:08;;;;;;;12.60;9.35;;;-0.90;99.90;;;;;;486470;244;27449;-76
2023/02/14 04:51:09;;;;;;;20.40;10.93;;;-0.90;99.90;;;;;;486527;244;27973;-75
2023/02/14 04:53:10;;;;;;;14.75;10.00;;;-0.90;99.90;;;;;;486524;244;27387;-76
2023/02/14 04:55:12;;;;;;;17.37;11.30;;;-0.90;99.90;;;;;;486500;244;27449;-76
2023/02/14 04:57:13;;;;;;;20.40;11.90;;;-0.90;99.90;;;;;;486559;244;27834;-76
2023/02/14 04:59:14;;;;;;;18.45;11.20;;;-0.90;99.90;;;;;;486550;244;27429;-76
2023/02/14 05:01:15;;;;;;;15.32;9.63;;;-0.90;99.90;;;;;;486515;244;27474;-76
2023/02/14 05:03:17;;;;;;;16.37;9.98;;;-1.00;99.90;;;;;;486509;244;27923;-75
2023/02/14 05:05:18;;;;;;;15.18;10.30;;;-1.00;99.90;;;;;;486521;244;29092;-76
2023/02/14 05:07:19;;;;;;;18.48;10.75;;;-0.90;99.90;;;;;;486544;244;27505;-76
2023/02/14 05:09:20;;;;;;;17.98;11.15;;;-0.90;99.90;;;;;;486546;244;27395;-76
2023/02/14 05:11:22;;;;;;;17.77;11.20;;;-0.90;99.90;;;;;;486542;244;27537;-77
2023/02/14 05:13:23;;;;;;;18.77;11.27;;;-0.90;99.90;;;;;;486488;244;27414;-76
2023/02/14 05:15:24;;;;;;;16.45;10.52;;;-0.90;99.90;;;;;;486382;244;27568;-76
2023/02/14 05:17:25;;;;;;;19.17;11.95;;;-0.90;99.90;;;;;;486536;244;27922;-77
2023/02/14 05:19:27;;;;;;;17.17;9.95;;;-1.00;99.90;;;;;;486453;244;27391;-76
2023/02/14 05:21:31;;;;;;;15.13;9.50;;;-1.00;99.90;;;;;;486512;244;27474;-76
2023/02/14 05:23:29;;;;;;;23.12;11.57;;;-1.00;99.90;;;;;;486292;244;27411;-76
2023/02/14 05:25:30;;;;;;;17.80;11.60;;;-1.00;99.90;;;;;;486564;244;27402;-76
2023/02/14 05:27:32;;;;;;;20.42;12.93;;;-1.00;99.90;;;;;;486572;244;27546;-76
2023/02/14 05:29:33;;;;;;;21.27;13.82;;;-1.00;99.90;;;;;;486551;244;27911;-76
2023/02/14 05:31:34;;;;;;;23.95;16.25;;;-1.00;99.90;;;;;;486566;244;28028;-75
2023/02/14 05:33:36;;;;;;;25.05;17.35;;;-1.00;99.90;;;;;;486499;244;27432;-76
2023/02/14 05:35:37;;;;;;;29.27;18.15;;;-1.00;99.90;;;;;;486555;244;27402;-76
2023/02/14 05:37:38;;;;;;;24.42;17.70;;;-1.00;99.90;;;;;;486564;244;27466;-76
2023/02/14 05:39:39;;;;;;;24.65;17.37;;;-0.90;99.90;;;;;;486540;244;27429;-75
2023/02/14 05:41:41;;;;;;;31.45;19.67;;;-0.90;99.90;;;;;;486484;244;27498;-75
2023/02/14 05:43:42;;;;;;;28.85;18.92;;;-0.90;99.90;;;;;;486562;244;28010;-76
2023/02/14 05:45:43;;;;;;;26.05;18.30;;;-1.00;99.90;;;;;;486541;244;27398;-76
2023/02/14 05:47:44;;;;;;;27.10;18.80;;;-1.00;99.90;;;;;;486523;244;27540;-76
2023/02/14 05:49:46;;;;;;;27.37;18.35;;;-1.00;99.90;;;;;;486491;244;27522;-76
2023/02/14 05:51:47;;;;;;;25.05;16.10;;;-1.10;99.90;;;;;;486536;244;27544;-76
2023/02/14 05:53:48;;;;;;;23.87;14.60;;;-1.00;99.90;;;;;;486564;244;27453;-76
2023/02/14 05:55:49;;;;;;;23.98;13.70;;;-1.10;99.90;;;;;;486521;244;27920;-75
2023/02/14 05:57:51;;;;;;;21.87;13.13;;;-1.10;99.90;;;;;;486499;244;28002;-76
2023/02/14 05:59:52;;;;;;;22.08;13.90;;;-1.10;99.90;;;;;;486508;244;27469;-76
2023/02/14 06:01:53;;;;;;;21.08;12.85;;;-1.10;99.90;;;;;;486547;244;27423;-75
2023/02/14 06:03:54;;;;;;;16.48;11.25;;;-1.10;99.90;;;;;;486572;244;27530;-75
2023/02/14 06:05:56;;;;;;;18.37;11.90;;;-1.10;99.90;;;;;;486513;244;27431;-75
2023/02/14 06:07:57;;;;;;;18.95;12.23;;;-1.10;99.90;;;;;;486512;244;27927;-77
2023/02/14 06:09:58;;;;;;;16.45;11.12;;;-1.10;99.90;;;;;;486521;244;28665;-76
2023/02/14 06:11:59;;;;;;;17.77;10.93;;;-1.20;99.90;;;;;;486514;244;27383;-76
2023/02/14 06:14:01;;;;;;;19.65;11.27;;;-1.10;99.90;;;;;;486537;244;27445;-76
2023/02/14 06:16:02;;;;;;;17.52;11.60;;;-1.10;99.90;;;;;;486532;244;27463;-76
2023/02/14 06:18:03;;;;;;;19.45;12.32;;;-1.10;99.90;;;;;;486512;244;27454;-76
2023/02/14 06:20:05;;;;;;;17.58;11.18;;;-1.10;99.90;;;;;;486545;244;27991;-76
2023/02/14 06:22:06;;;;;;;22.83;12.00;;;-1.10;99.90;;;;;;486536;244;27952;-76
2023/02/14 06:24:07;;;;;;;22.17;11.93;;;-1.00;99.90;;;;;;486534;244;27430;-76
2023/02/14 06:26:08;;;;;;;19.67;12.43;;;-1.10;99.90;;;;;;486488;244;27442;-76
2023/02/14 06:28:10;;;;;;;16.27;10.85;;;-1.10;99.90;;;;;;486501;244;27467;-76
2023/02/14 06:30:11;;;;;;;16.98;10.68;;;-1.10;99.90;;;;;;486544;244;27858;-76
2023/02/14 06:32:12;;;;;;;19.70;12.15;;;-1.10;99.90;;;;;;486523;244;27403;-75
2023/02/14 06:34:13;;;;;;;17.80;11.20;;;-1.10;99.90;;;;;;486510;244;27920;-76
2023/02/14 06:36:15;;;;;;;18.42;10.65;;;-1.10;99.90;;;;;;486503;244;27434;-76
2023/02/14 06:38:16;;;;;;;19.08;11.60;;;-1.10;99.90;;;;;;486552;244;27442;-76
2023/02/14 06:40:18;;;;;;;22.35;12.20;;;-1.10;99.90;;;;;;486530;244;27589;-76
2023/02/14 06:42:19;;;;;;;18.02;12.13;;;-1.10;99.90;;;;;;486526;244;27441;-75
2023/02/14 06:44:20;;;;;;;18.73;11.45;;;-1.10;99.90;;;;;;486508;244;27537;-77
2023/02/14 06:46:21;;;;;;;19.65;12.68;;;-1.10;99.90;;;;;;486525;244;27946;-76
2023/02/14 06:48:22;;;;;;;19.50;11.80;;;-1.10;99.90;;;;;;486507;244;27915;-76
2023/02/14 06:50:23;;;;;;;16.87;11.23;;;-1.10;99.90;;;;;;486563;244;27474;-76
2023/02/14 06:52:25;;;;;;;20.50;10.93;;;-1.10;99.90;;;;;;486537;244;27458;-75
2023/02/14 06:54:26;;;;;;;18.77;11.85;;;-1.10;99.90;;;;;;486534;244;27462;-76
2023/02/14 06:56:27;;;;;;;18.70;11.35;;;-1.10;99.90;;;;;;486499;244;27469;-76
2023/02/14 06:58:28;;;;;;;20.52;13.27;;;-1.10;99.90;;;;;;486543;244;27997;-76
2023/02/14 07:00:30;;;;;;;17.12;11.55;;;-1.10;99.90;;;;;;486554;244;27954;-76
2023/02/14 07:02:31;;;;;;;20.37;12.50;;;-1.10;99.90;;;;;;486492;244;27485;-76
2023/02/14 07:04:32;;;;;;;19.25;11.45;;;-1.00;99.90;;;;;;486513;244;27537;-76
2023/02/14 07:06:33;;;;;;;22.08;12.40;;;-1.00;99.90;;;;;;486518;244;27410;-75
2023/02/14 07:08:35;;;;;;;20.48;12.60;;;-1.00;99.90;;;;;;486542;244;27526;-76
2023/02/14 07:10:36;;;;;;;23.23;11.82;;;-1.00;99.90;;;;;;486557;244;27913;-77
2023/02/14 07:12:41;;;;;;;23.90;12.15;;;-1.00;99.90;;;;;;486553;244;27866;-76
2023/02/14 07:14:39;;;;;;;21.42;13.32;;;-0.90;99.90;;;;;;486322;244;27437;-76
2023/02/14 07:16:40;;;;;;;22.77;13.93;;;-0.90;99.90;;;;;;486539;244;27403;-76
2023/02/14 07:18:41;;;;;;;19.85;13.07;;;-0.90;99.90;;;;;;486519;244;27437;-77
2023/02/14 07:20:43;;;;;;;21.25;12.30;;;-0.90;99.90;;;;;;486551;244;27767;-76
2023/02/14 07:22:44;;;;;;;16.87;11.07;;;-0.90;99.90;;;;;;486509;244;27522;-76
2023/02/14 07:24:45;;;;;;;23.83;13.40;;;-0.90;99.90;;;;;;486490;244;28052;-76
2023/02/14 07:26:46;;;;;;;17.70;11.52;;;-0.90;99.90;;;;;;486480;244;27737;-76
2023/02/14 07:28:50;;;;;;;19.67;12.73;;;-0.90;99.90;;;;;;486507;244;27550;-75
2023/02/14 07:30:52;;;;;;;18.92;11.70;;;-0.90;99.90;;;;;;486519;244;27938;-76
2023/02/14 07:32:53;;;;;;;18.67;11.93;;;-0.90;99.90;;;;;;486519;244;28024;-76
2023/02/14 07:34:54;;;;;;;19.40;12.05;;;-1.00;99.90;;;;;;486510;244;27402;-76
2023/02/14 07:36:55;;;;;;;22.90;12.27;;;-1.00;99.90;;;;;;486498;244;27441;-76
2023/02/14 07:38:57;;;;;;;17.83;11.23;;;-1.00;99.90;;;;;;486501;244;27490;-76
2023/02/14 07:40:58;;;;;;;20.27;11.73;;;-1.00;99.90;;;;;;486530;244;27505;-76
2023/02/14 07:42:59;;;;;;;15.90;10.90;;;-0.90;99.90;;;;;;486536;244;27936;-76
2023/02/14 07:45:00;;;;;;;21.62;12.02;;;-0.90;99.90;;;;;;486469;244;27874;-76
2023/02/14 07:47:02;;;;;;;18.58;11.95;;;-0.90;99.90;;;;;;486415;244;27470;-75
2023/02/14 07:49:03;;;;;;;16.90;10.75;;;-0.80;99.90;;;;;;486494;244;27565;-75
2023/02/14 07:51:04;;;;;;;18.95;12.50;;;-0.80;99.90;;;;;;486473;244;27481;-76
2023/02/14 07:53:07;;;;;;;22.75;12.00;;;-0.70;99.90;;;;;;486451;244;27439;-76
2023/02/14 07:55:07;;;;;;;17.75;11.85;;;-0.70;99.90;;;;;;486352;244;27474;-76
2023/02/14 07:57:08;;;;;;;19.15;12.05;;;-0.60;99.90;;;;;;486511;244;28016;-76
2023/02/14 07:59:09;;;;;;;18.75;11.45;;;-0.60;99.90;;;;;;486585;244;27994;-77
2023/02/14 08:01:10;;;;;;;18.95;12.35;;;-0.60;99.90;;;;;;486567;244;27410;-76
2023/02/14 08:03:12;;;;;;;19.17;11.52;;;-0.60;99.90;;;;;;486552;244;27476;-76
2023/02/14 08:05:13;;;;;;;18.35;12.65;;;-0.50;99.90;;;;;;486531;244;27410;-76
2023/02/14 08:07:14;;;;;;;20.98;13.10;;;-0.50;99.90;;;;;;486561;244;27459;-76
2023/02/14 08:09:23;;;;;;;18.87;11.70;;;-0.40;99.90;;;;;;486576;244;27941;-78
2023/02/14 08:13:36;;;;;;;16.85;11.63;;;-0.30;99.90;;;;;;486543;244;27454;-76
2023/02/14 08:17:57;;;;;;;30.77;16.85;;;-0.30;99.90;;;;;;486566;244;27486;-76
2023/02/14 08:19:58;;;;;;;21.27;13.62;;;-0.20;99.90;;;;;;486543;244;27458;-76
2023/02/14 08:21:59;;;;;;;21.17;14.73;;;-0.10;99.90;;;;;;486509;244;27446;-76
2023/02/14 08:24:01;;;;;;;23.92;14.10;;;-0.10;99.90;;;;;;486531;244;27861;-76
2023/02/14 08:26:02;;;;;;;24.40;15.82;;;0.00;99.90;;;;;;486555;244;27566;-77
2023/02/14 08:28:03;;;;;;;28.20;16.00;;;0.10;99.90;;;;;;486531;244;27402;-76
2023/02/14 08:30:04;;;;;;;27.48;17.87;;;0.20;99.90;;;;;;486501;244;27472;-76
2023/02/14 08:32:06;;;;;;;31.62;19.62;;;0.20;99.90;;;;;;486499;244;27411;-76
2023/02/14 08:34:07;;;;;;;25.35;16.02;;;0.30;99.90;;;;;;486551;244;27437;-76
2023/02/14 08:36:08;;;;;;;31.77;16.33;;;0.30;99.90;;;;;;486522;244;27510;-76
2023/02/14 08:38:09;;;;;;;22.20;14.48;;;0.30;99.90;;;;;;486464;244;27914;-77
2023/02/14 08:40:11;;;;;;;26.23;15.52;;;0.40;99.90;;;;;;486472;244;27924;-76
2023/02/14 08:42:12;;;;;;;26.73;15.57;;;0.40;99.90;;;;;;486491;244;27395;-76
2023/02/14 08:44:15;;;;;;;21.90;13.52;;;0.40;99.90;;;;;;486545;244;27501;-76
2023/02/14 08:46:15;;;;;;;18.90;13.25;;;0.50;99.90;;;;;;486508;244;27465;-77
2023/02/14 08:48:16;;;;;;;21.17;13.18;;;0.50;99.90;;;;;;486525;244;27417;-76
2023/02/14 08:50:17;;;;;;;25.42;15.00;;;0.50;99.90;;;;;;486496;244;27522;-75
2023/02/14 08:52:18;;;;;;;22.87;14.80;;;0.60;99.90;;;;;;486483;244;28440;-75
2023/02/14 08:54:19;;;;;;;23.55;14.65;;;0.60;99.90;;;;;;486546;244;28023;-76
2023/02/14 08:56:21;;;;;;;18.77;12.70;;;0.70;99.90;;;;;;486533;244;27944;-76
2023/02/14 08:58:22;;;;;;;20.75;13.98;;;0.80;99.90;;;;;;486521;244;27395;-76
2023/02/14 09:00:23;;;;;;;19.40;12.57;;;0.80;99.90;;;;;;486503;244;27441;-76
2023/02/14 09:02:24;;;;;;;21.05;13.32;;;0.90;99.90;;;;;;486546;244;27422;-75
2023/02/14 09:04:26;;;;;;;20.60;13.38;;;1.00;99.90;;;;;;486569;244;27422;-76
2023/02/14 09:06:27;;;;;;;19.87;12.20;;;1.00;99.90;;;;;;486552;244;27489;-76
2023/02/14 09:08:30;;;;;;;18.20;12.00;;;1.10;99.90;;;;;;486563;244;28033;-76
2023/02/14 09:10:30;;;;;;;16.45;11.85;;;1.20;99.90;;;;;;486530;244;27909;-76
2023/02/14 09:12:31;;;;;;;16.10;11.35;;;1.20;99.90;;;;;;486563;244;27528;-76
2023/02/14 09:14:32;;;;;;;19.83;12.93;;;1.30;99.90;;;;;;486574;244;27410;-75
2023/02/14 09:16:33;;;;;;;18.87;11.70;;;1.30;99.90;;;;;;486560;244;27566;-78
2023/02/14 09:18:35;;;;;;;17.27;11.12;;;1.40;99.90;;;;;;486537;244;27488;-75
2023/02/14 09:20:36;;;;;;;14.95;10.35;;;1.40;99.90;;;;;;486518;244;27529;-77
2023/02/14 09:22:37;;;;;;;15.30;10.15;;;1.50;99.90;;;;;;486482;242;27476;-76
2023/02/14 09:24:38;;;;;;;16.95;11.73;;;1.60;99.90;;;;;;486533;244;27867;-76
2023/02/14 09:26:41;;;;;;;16.12;11.35;;;1.60;99.90;;;;;;486531;244;27965;-77
2023/02/14 09:28:41;;;;;;;17.05;11.25;;;1.70;99.90;;;;;;484260;244;36130;-76
2023/02/14 09:30:42;;;;;;;20.52;12.70;;;1.70;99.90;;;;;;486479;244;27444;-77
2023/02/14 09:32:43;;;;;;;15.20;10.93;;;1.80;99.90;;;;;;486444;244;27542;-75
2023/02/14 09:34:45;;;;;;;17.77;11.38;;;1.90;99.90;;;;;;486452;244;27434;-76
2023/02/14 09:36:46;;;;;;;16.35;10.82;;;2.00;99.90;;;;;;486414;244;27482;-78
2023/02/14 09:38:47;;;;;;;16.77;11.40;;;2.10;99.90;;;;;;486395;244;27403;-76
2023/02/14 09:40:49;;;;;;;21.02;12.55;;;2.20;99.90;;;;;;486354;244;28011;-75
2023/02/14 09:42:50;;;;;;;12.93;9.65;;;2.20;99.90;;;;;;486427;244;28190;-77
2023/02/14 09:44:51;;;;;;;17.62;12.02;;;2.30;99.90;;;;;;486501;244;27387;-76
2023/02/14 09:46:52;;;;;;;16.65;10.68;;;2.40;99.90;;;;;;486525;244;28006;-77
2023/02/14 09:48:53;;;;;;;17.02;10.93;;;2.50;99.90;;;;;;486494;244;27432;-77
2023/02/14 09:50:55;;;;;;;16.77;10.85;;;2.60;99.90;;;;;;486466;244;27494;-76
2023/02/14 09:52:56;;;;;;;18.80;11.85;;;2.70;99.90;;;;;;486540;244;27561;-76
2023/02/14 09:54:57;;;;;;;20.62;11.40;;;2.90;99.90;;;;;;486550;244;27879;-75
2023/02/14 09:56:59;;;;;;;21.70;12.80;;;3.00;99.90;;;;;;486507;244;27941;-76
2023/02/14 09:59:00;;;;;;;16.00;10.90;;;3.00;99.90;;;;;;486504;244;27911;-75
2023/02/14 10:01:01;;;;;;;19.67;11.68;;;3.10;99.90;;;;;;486472;244;27523;-76
2023/02/14 10:03:02;;;;;;;17.80;11.27;;;3.10;99.90;;;;;;486538;244;27437;-77
2023/02/14 10:05:05;;;;;;;15.18;10.52;;;3.20;99.90;;;;;;486503;244;27490;-76
2023/02/14 10:07:08;;;;;;;14.35;10.57;;;3.20;99.90;;;;;;486476;244;27517;-77
2023/02/14 10:09:06;;;;;;;17.52;12.48;;;3.30;99.90;;;;;;486418;244;27391;-76
2023/02/14 10:11:07;;;;;;;17.15;11.70;;;3.40;99.90;;;;;;486522;244;27874;-76
2023/02/14 10:13:09;;;;;;;15.25;10.30;;;3.50;99.90;;;;;;486528;244;28042;-77
2023/02/14 10:15:10;;;;;;;21.27;12.40;;;3.60;99.90;;;;;;486503;244;27442;-76
2023/02/14 10:17:11;;;;;;;18.48;11.52;;;3.70;99.90;;;;;;486484;244;27562;-76
2023/02/14 10:19:12;;;;;;;18.67;11.20;;;3.70;99.90;;;;;;486489;244;27482;-76
2023/02/14 10:21:14;;;;;;;16.23;10.50;;;3.70;99.90;;;;;;486500;244;27450;-76
2023/02/14 10:23:15;;;;;;;18.85;11.93;;;3.80;99.90;;;;;;486512;244;27438;-76
2023/02/14 10:25:16;;;;;;;18.40;12.93;;;3.90;99.90;;;;;;486518;244;27846;-76
2023/02/14 10:27:17;;;;;;;17.50;11.40;;;4.00;99.90;;;;;;486506;244;28024;-77
2023/02/14 10:29:19;;;;;;;20.42;13.18;;;4.20;99.90;;;;;;486497;244;27407;-76
2023/02/14 10:31:20;;;;;;;22.92;14.57;;;4.30;99.90;;;;;;486514;244;27430;-75
2023/02/14 10:33:21;;;;;;;21.00;13.30;;;4.30;99.90;;;;;;486532;244;27446;-76
2023/02/14 10:35:22;;;;;;;23.62;13.88;;;4.40;99.90;;;;;;486494;244;27407;-76
2023/02/14 10:37:24;;;;;;;19.58;13.38;;;4.60;99.90;;;;;;486510;244;27516;-75
2023/02/14 10:39:25;;;;;;;17.98;12.85;;;4.70;99.90;;;;;;486524;244;28635;-77
2023/02/14 10:41:26;;;;;;;19.23;12.68;;;4.90;99.90;;;;;;486550;244;27494;-76
2023/02/14 10:43:27;;;;;;;18.70;12.57;;;4.90;99.90;;;;;;486567;244;27469;-76
2023/02/14 10:45:29;;;;;;;16.50;12.60;;;4.90;99.90;;;;;;486538;244;27521;-76
2023/02/14 10:47:30;;;;;;;19.83;12.30;;;5.00;99.90;;;;;;486537;244;27458;-76